createdAt,value
2023-02-01T05:13:24.024Z,2.10
2023-02-01T05:16:27.828Z,2.12
2023-02-01T05:19:30.425Z,2.13
2023-02-01T05:22:33.288Z,2.18
2023-02-01T05:25:35.818Z,2.18
2023-02-01T05:28:38.702Z,2.18
2023-02-01T05:31:42.373Z,2.20
2023-02-01T05:34:45.589Z,2.18
2023-02-01T05:37:48.283Z,2.19
2023-02-01T05:40:51.272Z,2.22
2023-02-01T05:43:53.841Z,2.18
2023-02-01T05:46:56.693Z,2.22
2023-02-01T05:49:59.226Z,2.24
2023-02-01T05:53:02.126Z,2.24
2023-02-01T05:56:05.207Z,2.22
2023-02-01T05:59:09.758Z,2.21
2023-02-01T06:02:13.381Z,2.19
2023-02-01T06:05:16.399Z,2.15
2023-02-01T06:08:19.082Z,2.20
2023-02-01T06:11:32.419Z,2.16
2023-02-01T06:14:35.451Z,2.10
2023-02-01T06:17:39.262Z,2.14
2023-02-01T06:20:42.269Z,2.18
2023-02-01T06:23:45.252Z,2.13
2023-02-01T06:26:47.881Z,2.15
2023-02-01T06:29:51.148Z,2.22
2023-02-01T06:32:55.192Z,2.23
2023-02-01T06:36:02.998Z,2.22
2023-02-01T06:39:06.218Z,2.23
2023-02-01T06:42:09.023Z,2.23
2023-02-01T06:45:11.865Z,2.23
2023-02-01T06:48:14.780Z,2.25
2023-02-01T06:51:29.350Z,2.26
2023-02-01T06:54:34.597Z,2.35
2023-02-01T06:57:37.162Z,2.37
2023-02-01T07:00:43.673Z,2.44
2023-02-01T07:03:52.177Z,2.51
2023-02-01T07:06:55.367Z,2.54
2023-02-01T07:09:58.004Z,2.54
2023-02-01T07:13:01.080Z,2.68
2023-02-01T07:16:06.808Z,2.73
2023-02-01T07:19:09.874Z,2.91
2023-02-01T07:22:12.825Z,3.00
2023-02-01T07:25:18.137Z,3.14
2023-02-01T07:28:20.688Z,3.28
2023-02-01T07:31:24.005Z,3.37
2023-02-01T07:34:27.747Z,3.58
2023-02-01T07:37:32.003Z,3.62
2023-02-01T07:40:34.748Z,3.74
2023-02-01T07:43:37.926Z,3.83
2023-02-01T07:46:41.040Z,3.97
2023-02-01T07:49:44.211Z,4.11
2023-02-01T07:52:47.984Z,4.45
2023-02-01T07:55:50.809Z,4.67
2023-02-01T07:58:58.251Z,4.62
2023-02-01T08:02:01.085Z,4.76
2023-02-01T08:05:05.996Z,4.66
2023-02-01T08:08:08.702Z,4.96
2023-02-01T08:11:12.001Z,4.77
2023-02-01T08:14:14.716Z,4.54
2023-02-01T08:17:17.626Z,4.43
2023-02-01T08:20:23.183Z,4.76
2023-02-01T08:23:26.234Z,4.42
2023-02-01T08:26:28.825Z,4.59
2023-02-01T08:29:32.070Z,4.43
2023-02-01T08:32:35.547Z,4.57
2023-02-01T08:35:43.698Z,4.48
2023-02-01T08:38:46.881Z,4.54
2023-02-01T08:42:09.816Z,4.64
2023-02-01T08:45:12.383Z,4.69
2023-02-01T08:48:15.212Z,4.84
2023-02-01T08:51:20.625Z,4.94
2023-02-01T08:54:24.332Z,4.82
2023-02-01T08:57:27.356Z,4.67
2023-02-01T09:00:30.260Z,4.79
2023-02-01T09:03:33.747Z,5.00
2023-02-01T09:06:42.269Z,5.19
2023-02-01T09:09:46.129Z,5.55
2023-02-01T09:12:51.268Z,5.85
2023-02-01T09:15:54.853Z,6.29
2023-02-01T09:19:24.024Z,7.30
2023-02-01T09:22:20.951Z,7.71
2023-02-01T09:25:23.948Z,7.24
2023-02-01T09:28:26.647Z,7.84
2023-02-01T09:31:29.842Z,8.28
2023-02-01T09:34:32.821Z,6.97
2023-02-01T09:37:35.827Z,7.47
2023-02-01T09:40:47.448Z,8.13
2023-02-01T09:44:03.022Z,8.80
2023-02-01T09:47:12.253Z,8.89
2023-02-01T09:50:23.288Z,8.64
2023-02-01T09:53:33.199Z,8.33
2023-02-01T09:56:42.763Z,7.45
2023-02-01T09:59:53.912Z,6.95
2023-02-01T10:02:57.754Z,6.80
2023-02-01T10:06:37.431Z,7.42
2023-02-01T10:10:04.082Z,8.20
2023-02-01T10:13:39.943Z,8.23
2023-02-01T10:16:59.271Z,8.11
2023-02-01T10:20:08.430Z,7.92
2023-02-01T10:23:34.583Z,9.12
2023-02-01T10:26:43.459Z,10.18
2023-02-01T10:29:51.980Z,9.70
2023-02-01T10:33:16.314Z,9.95
2023-02-01T10:36:19.507Z,9.88
2023-02-01T10:39:23.664Z,9.87
2023-02-01T10:42:30.499Z,10.45
2023-02-01T10:45:34.781Z,10.29
2023-02-01T10:48:39.172Z,10.15
2023-02-01T10:52:13.652Z,9.71
2023-02-01T10:55:40.002Z,10.10
2023-02-01T10:58:47.421Z,9.39
2023-02-01T11:01:51.760Z,8.68
2023-02-01T11:05:13.175Z,8.36
2023-02-01T11:16:15.862Z,7.83
2023-02-01T11:30:59.767Z,7.45
2023-02-01T11:34:15.527Z,7.57
2023-02-01T11:37:22.756Z,7.58
2023-02-01T11:40:30.399Z,7.23
2023-02-01T11:43:32.998Z,7.07
2023-02-01T11:46:36.639Z,6.70
2023-02-01T11:49:39.895Z,6.15
2023-02-01T11:53:08.018Z,5.93
2023-02-01T11:56:31.530Z,5.67
2023-02-01T12:00:23.340Z,5.45
2023-02-01T12:03:42.634Z,5.26
2023-02-01T12:06:53.047Z,5.10
2023-02-01T12:10:17.347Z,5.32
2023-02-01T12:13:53.967Z,5.24
2023-02-01T12:17:34.435Z,5.02
2023-02-01T12:20:57.998Z,4.85
2023-02-01T12:24:18.965Z,4.62
2023-02-01T12:27:24.258Z,4.34
2023-02-01T12:30:53.835Z,4.30
2023-02-01T12:34:40.867Z,4.25
2023-02-01T12:38:00.536Z,3.86
2023-02-01T12:45:02.882Z,3.53
2023-02-01T12:48:31.049Z,3.47
2023-02-01T12:52:06.195Z,3.13
2023-02-01T12:55:34.932Z,3.15
2023-02-01T12:58:43.700Z,2.92
2023-02-01T13:01:57.657Z,2.79
2023-02-01T13:16:39.839Z,3.55
2023-02-01T13:19:51.472Z,3.91
2023-02-01T13:22:58.758Z,3.91
2023-02-01T13:26:01.684Z,3.84
2023-02-01T13:29:11.703Z,3.76
2023-02-01T13:33:50.754Z,3.72
2023-02-01T13:35:47.985Z,3.69
2023-02-01T13:39:30.531Z,3.64
2023-02-01T13:42:44.970Z,3.70
2023-02-01T13:45:52.335Z,3.65
2023-02-01T13:48:58.483Z,3.55
2023-02-01T13:56:18.554Z,3.45
2023-02-01T13:59:46.270Z,3.36
2023-02-01T14:03:08.902Z,3.38
2023-02-01T14:06:27.379Z,3.44
2023-02-01T14:09:38.314Z,3.51
2023-02-01T14:12:50.461Z,3.64
2023-02-01T14:16:05.495Z,3.66
2023-02-01T14:19:21.719Z,3.97
2023-02-01T14:22:37.747Z,4.28
2023-02-01T14:25:53.880Z,4.17
2023-02-01T14:29:02.522Z,3.99
2023-02-01T14:59:07.542Z,3.80
2023-02-01T15:02:27.257Z,4.03
2023-02-01T15:05:35.016Z,4.22
2023-02-01T15:08:40.762Z,4.24
2023-02-01T15:19:12.095Z,4.21
2023-02-01T15:22:22.146Z,4.26
2023-02-01T15:28:42.127Z,3.93
2023-02-01T15:31:48.383Z,3.93
2023-02-01T15:34:51.184Z,3.99
2023-02-01T15:37:53.954Z,4.07
2023-02-01T15:41:08.690Z,3.94
2023-02-01T15:44:20.856Z,3.85
2023-02-01T15:47:31.714Z,3.81
2023-02-01T15:50:35.144Z,3.78
2023-02-01T15:53:37.721Z,3.78
2023-02-01T15:56:42.280Z,3.71
2023-02-01T15:59:46.528Z,3.73
2023-02-01T16:02:53.784Z,3.73
2023-02-01T16:06:02.179Z,3.88
2023-02-01T16:09:13.621Z,3.93
2023-02-01T16:12:47.784Z,3.99
2023-02-01T16:15:51.408Z,3.99
2023-02-01T16:18:55.103Z,3.95
2023-02-01T16:21:59.331Z,3.87
